• Join FlightAware (Why Join?)
  • Login
  • US Flag 
04:47PM EDT


 

Airport Tracker/Info


-or-


 

Live Flight TrackerFlight Track Log ✈ N364PH ✈ 11-Apr-2013 ✈ KSYR - KIAD

Flight Track Log - Related Links

Times and Time Zones

All times are in EDT time to prevent confusion due to time zone crossing. See the N364PH flight status page for this flight to view local times or setup timezone preferences in your user account.

Time Position Orientation Groundspeed Altitude Reporting Facility
EDT Latitude Longitude Course Direction KTS MPH feet Rate Location/Type
07:24PM 43.1064 -76.1033 157° South 144 166 1,000  Level Boston Center
07:25PM 43.0797 -76.0875 157° South 165 190 2,300 1,260 Climbing Boston Center
07:26PM 43.0386 -76.1333 219° Southwest 202 232 3,700 1,440 Climbing Boston Center
07:27PM 43.0136 -76.2000 243° Southwest 193 222 5,300 1,380 Climbing Boston Center
07:30PM 42.9569 -76.3272 239° Southwest 190 219 8,300 1,260 Climbing New York Center
07:31PM 42.9250 -76.3867 234° Southwest 190 219 9,500 1,140 Climbing New York Center
07:32PM 42.8794 -76.4250 212° Southwest 190 219 10,600 1,080 Climbing New York Center
07:33PM 42.8319 -76.4606 209° Southwest 196 226 11,800 1,140 Climbing New York Center
07:34PM 42.7822 -76.5014 211° Southwest 202 232 12,900 1,200 Climbing New York Center
07:35PM 42.7272 -76.5192 193° South 207 238 14,200 1,140 Climbing New York Center
07:36PM 42.6728 -76.5256 185° South 207 238 15,200 780 Climbing New York Center
07:37PM 42.6244 -76.5353 188° South 207 238 15,800 360 Climbing New York Center
07:38PM 42.5572 -76.5492 189° South 220 253 16,000 60 Climbing New York Center
07:39PM 42.4858 -76.5625 188° South 242 278 16,000  Level New York Center
07:40PM 42.4167 -76.5731 186° South 256 295 16,000 -60 Level New York Center
07:41PM 42.3431 -76.5892 189° South 261 300 15,900 -60 Descending New York Center
07:42PM 42.2631 -76.6072 189° South 261 300 15,900  Level New York Center
07:43PM 42.1917 -76.6206 188° South 261 300 15,900  Level New York Center
07:44PM 42.1181 -76.6336 187° South 261 300 15,900  Level New York Center
07:45PM 42.0500 -76.6611 197° South 261 300 15,900  Level New York Center
07:46PM 41.9797 -76.6939 199° South 266 306 15,900  Level New York Center
07:47PM 41.9022 -76.7008 184° South 266 306 16,000  Climbing New York Center
07:48PM 41.8269 -76.7108 186° South 276 318 15,900  Descending New York Center
07:49PM 41.7514 -76.7208 186° South 281 323 16,000  Climbing New York Center
07:50PM 41.6758 -76.7308 186° South 275 316 16,000  Level New York Center
07:51PM 41.6025 -76.7408 186° South 275 316 16,000  Level New York Center
07:52PM 41.5269 -76.7508 186° South 275 316 16,000  Level New York Center
07:53PM 41.4536 -76.7608 186° South 275 316 16,000  Level New York Center
07:54PM 41.3822 -76.7739 188° South 275 316 16,000  Level New York Center
07:55PM 41.3150 -76.7817 185° South 275 316 16,000  Level New York Center
07:56PM 41.2436 -76.7947 188° South 275 316 16,000  Level New York Center
07:57PM 41.1739 -76.8106 190° South 270 311 16,000  Level New York Center
07:58PM 41.1047 -76.8236 188° South 265 305 16,000  Level New York Center
07:59PM 41.0353 -76.8367 188° South 259 298 16,000  Level New York Center
08:00PM 40.9678 -76.8500 188° South 259 298 16,000  Level New York Center
08:01PM 40.8961 -76.8656 189° South 254 292 16,000  Level New York Center
08:02PM 40.8269 -76.8758 186° South 254 292 16,000  Level New York Center
08:03PM 40.7614 -76.8947 192° South 248 285 16,000  Level New York Center
08:04PM 40.6958 -76.9133 192° South 248 285 16,000 -60 Level New York Center
08:05PM 40.6342 -76.9353 195° South 243 280 15,900 -60 Descending New York Center
08:06PM 40.5664 -76.9536 192° South 243 280 15,900  Level New York Center
08:07PM 40.5008 -76.9753 194° South 243 280 15,900 -60 Level New York Center
08:08PM 40.4350 -76.9964 194° South 243 280 15,800 -540 Descending New York Center
08:09PM 40.3672 -77.0178 194° South 250 288 14,900 -840 Descending New York Center
08:10PM 40.2931 -77.0383 192° South 263 303 14,200 -840 Descending New York Center
08:12PM 40.1167 -77.1000 195° South 279 321 12,200 -840 Descending Potomac TRACON
08:13PM 40.0333 -77.1167 189° South 277 319 11,400 -840 Descending Potomac TRACON
08:14PM 39.9667 -77.1333 191° South 273 314 10,600 -840 Descending Potomac TRACON
08:15PM 39.9000 -77.1667 201° Southwest 260 299 9,800 -840 Descending Potomac TRACON
08:16PM 39.8333 -77.1833 191° South 253 291 9,000 -840 Descending Potomac TRACON
08:17PM 39.7667 -77.2000 191° South 251 289 8,200 -840 Descending Potomac TRACON
08:18PM 39.6833 -77.2333 197° South 247 284 7,400 -660 Descending Potomac TRACON
08:19PM 39.6333 -77.2833 218° Southwest 244 281 6,900 -540 Descending Potomac TRACON
08:20PM 39.5833 -77.3333 218° Southwest 244 281 6,400 -660 Descending Potomac TRACON
08:21PM 39.5167 -77.3833 210° Southwest 242 278 5,600 -840 Descending Potomac TRACON
08:22PM 39.4667 -77.4167 207° Southwest 239 275 4,800 -780 Descending Potomac TRACON
08:23PM 39.4000 -77.4333 191° South 237 273 4,100 -360 Descending Potomac TRACON
08:24PM 39.3333 -77.4333 180° South 232 267 4,100 -180 Level Potomac TRACON
08:25PM 39.2667 -77.4333 180° South 229 264 3,800 -480 Descending Potomac TRACON
08:26PM 39.2167 -77.4333 180° South 224 258 3,200 -360 Descending Potomac TRACON
08:27PM 39.1500 -77.4333 180° South 209 241 3,100 -60 Descending Potomac TRACON
08:28PM 39.1000 -77.4333 180° South 170 196 3,100 -480 Level Potomac TRACON
08:29PM 39.0500 -77.4333 180° South 175 201 2,200 -900 Descending Potomac TRACON